createdAt,value
2018-05-12T00:00:46.602Z,0.00
2018-05-12T00:01:46.656Z,0.00
2018-05-12T00:03:39.642Z,0.00
2018-05-12T00:04:39.707Z,0.00
2018-05-12T00:06:32.705Z,0.00
2018-05-12T00:07:32.762Z,0.00
2018-05-12T00:09:25.749Z,0.00
2018-05-12T00:10:25.811Z,0.00
2018-05-12T00:12:18.812Z,0.00
2018-05-12T00:13:18.865Z,0.00
2018-05-12T00:15:12.373Z,0.00
2018-05-12T00:16:12.437Z,0.00
2018-05-12T00:18:05.442Z,0.00
2018-05-12T00:19:05.500Z,0.00
2018-05-12T00:20:58.533Z,0.00
2018-05-12T00:21:58.579Z,0.00
2018-05-12T00:23:51.571Z,0.00
2018-05-12T00:24:51.629Z,0.00
2018-05-12T00:26:44.633Z,0.00
2018-05-12T00:27:44.681Z,0.00
2018-05-12T00:29:37.669Z,0.00
2018-05-12T00:30:37.731Z,0.00
2018-05-12T00:32:30.728Z,0.00
2018-05-12T00:33:30.783Z,0.00
2018-05-12T00:35:23.774Z,0.00
2018-05-12T00:36:23.836Z,0.00
2018-05-12T00:38:16.857Z,0.00
2018-05-12T00:39:16.896Z,0.00
2018-05-12T00:41:09.892Z,0.00
2018-05-12T00:42:09.946Z,0.00
2018-05-12T00:44:02.950Z,0.00
2018-05-12T00:45:03.006Z,0.00
2018-05-12T00:46:56.009Z,0.00
2018-05-12T00:47:56.065Z,0.00
2018-05-12T00:49:49.061Z,0.00
2018-05-12T00:50:49.125Z,0.00
2018-05-12T00:52:42.123Z,0.00
2018-05-12T00:53:42.177Z,0.00
2018-05-12T00:55:35.171Z,0.00
2018-05-12T00:56:35.234Z,0.00
2018-05-12T00:58:28.239Z,0.00
2018-05-12T00:59:28.294Z,0.00
2018-05-12T01:01:21.283Z,0.00
2018-05-12T01:02:21.345Z,0.00
2018-05-12T01:04:14.343Z,0.00
2018-05-12T01:05:14.401Z,0.00
2018-05-12T01:07:07.418Z,0.00
2018-05-12T01:08:07.448Z,0.00
2018-05-12T01:10:00.438Z,0.00
2018-05-12T01:11:00.503Z,0.00
2018-05-12T01:12:53.509Z,0.00
2018-05-12T01:13:53.565Z,0.00
2018-05-12T01:15:46.560Z,0.00
2018-05-12T01:16:46.621Z,0.00
2018-05-12T01:18:39.618Z,0.00
2018-05-12T01:19:39.676Z,0.00
2018-05-12T01:21:32.666Z,0.00
2018-05-12T01:22:32.730Z,0.00
2018-05-12T01:24:25.724Z,0.00
2018-05-12T01:25:25.779Z,0.00
2018-05-12T01:27:18.778Z,0.00
2018-05-12T01:28:18.833Z,0.00
2018-05-12T01:30:11.822Z,0.00
2018-05-12T01:31:11.884Z,0.00
2018-05-12T01:33:04.884Z,0.00
2018-05-12T01:34:05.071Z,0.00
2018-05-12T01:35:57.924Z,0.00
2018-05-12T01:36:57.994Z,0.00
2018-05-12T01:38:50.991Z,0.00
2018-05-12T01:39:51.042Z,0.00
2018-05-12T01:41:44.031Z,0.00
2018-05-12T01:42:44.097Z,0.00
2018-05-12T01:44:37.090Z,0.00
2018-05-12T01:45:37.148Z,0.00
2018-05-12T01:47:30.165Z,0.00
2018-05-12T01:48:30.197Z,0.00
2018-05-12T01:50:23.188Z,0.00
2018-05-12T01:51:23.250Z,0.00
2018-05-12T01:53:16.249Z,0.00
2018-05-12T01:54:16.302Z,0.00
2018-05-12T01:56:09.301Z,0.00
2018-05-12T01:57:09.358Z,0.00
2018-05-12T01:59:02.353Z,0.00
2018-05-12T02:00:02.406Z,0.00
2018-05-12T02:01:55.396Z,0.00
2018-05-12T02:02:55.459Z,0.00
2018-05-12T02:04:48.456Z,0.00
2018-05-12T02:05:48.505Z,0.00
2018-05-12T02:07:41.508Z,0.00
2018-05-12T02:08:41.563Z,0.00
2018-05-12T02:10:34.562Z,0.00
2018-05-12T02:11:34.624Z,0.00
2018-05-12T02:13:27.628Z,0.00
2018-05-12T02:14:27.682Z,0.00
2018-05-12T02:16:20.672Z,0.00
2018-05-12T02:17:20.738Z,0.00
2018-05-12T02:19:13.734Z,0.00
2018-05-12T02:20:13.788Z,0.00
2018-05-12T02:22:06.779Z,0.00
2018-05-12T02:23:06.841Z,0.00
2018-05-12T02:24:59.838Z,0.00
2018-05-12T02:25:59.897Z,0.00
2018-05-12T02:27:52.929Z,0.00
2018-05-12T02:28:52.955Z,0.00
2018-05-12T02:30:45.941Z,0.00
2018-05-12T02:31:45.999Z,0.00
2018-05-12T02:33:38.993Z,0.00
2018-05-12T02:34:39.061Z,0.00
2018-05-12T02:36:32.049Z,0.00
2018-05-12T02:37:32.103Z,0.00
2018-05-12T02:39:25.103Z,0.00
2018-05-12T02:40:25.153Z,0.00
2018-05-12T02:42:18.162Z,0.00
2018-05-12T02:43:18.205Z,0.00
2018-05-12T02:45:11.205Z,0.00
2018-05-12T02:46:11.256Z,0.00
2018-05-12T02:48:04.251Z,0.00
2018-05-12T02:49:04.305Z,0.00
2018-05-12T02:50:57.295Z,0.00
2018-05-12T02:51:57.357Z,0.00
2018-05-12T02:53:50.358Z,0.00
2018-05-12T02:54:50.406Z,0.00
2018-05-12T02:56:43.393Z,0.00
2018-05-12T02:57:43.462Z,0.00
2018-05-12T02:59:36.450Z,0.00
2018-05-12T03:00:36.507Z,0.00
2018-05-12T03:02:29.491Z,0.00
2018-05-12T03:03:29.552Z,0.00
2018-05-12T03:05:22.552Z,0.00
2018-05-12T03:06:22.608Z,0.00
2018-05-12T03:08:15.608Z,0.00
2018-05-12T03:09:15.662Z,0.00
2018-05-12T03:11:08.655Z,0.00
2018-05-12T03:12:08.720Z,0.00
2018-05-12T03:14:01.727Z,0.00
2018-05-12T03:15:01.771Z,0.00
2018-05-12T03:16:54.772Z,0.00
2018-05-12T03:17:54.834Z,0.00
2018-05-12T03:19:47.833Z,0.00
2018-05-12T03:20:47.888Z,0.00
2018-05-12T03:22:40.875Z,0.00
2018-05-12T03:23:40.939Z,0.00
2018-05-12T03:25:33.934Z,0.00
2018-05-12T03:26:33.992Z,0.00
2018-05-12T03:28:26.983Z,0.00
2018-05-12T03:29:27.038Z,0.00
2018-05-12T03:31:20.032Z,5.63
2018-05-12T03:32:20.089Z,5.63
2018-05-12T03:34:13.085Z,5.63
2018-05-12T03:35:13.139Z,5.63
2018-05-12T03:37:06.132Z,5.63
2018-05-12T03:38:06.185Z,5.63
2018-05-12T03:39:59.188Z,11.25
2018-05-12T03:40:59.241Z,11.25
2018-05-12T03:42:52.224Z,11.25
2018-05-12T03:43:52.286Z,11.25
2018-05-12T03:45:45.282Z,16.88
2018-05-12T03:46:45.335Z,16.88
2018-05-12T03:48:38.351Z,22.50
2018-05-12T03:49:38.434Z,22.50
2018-05-12T03:51:31.388Z,28.13
2018-05-12T03:52:31.432Z,28.13
2018-05-12T03:54:24.436Z,33.75
2018-05-12T03:55:24.479Z,33.75
2018-05-12T03:57:17.476Z,39.38
2018-05-12T03:58:17.537Z,39.38
2018-05-12T04:00:10.544Z,45.00
2018-05-12T04:01:10.599Z,50.63
2018-05-12T04:03:03.589Z,56.25
2018-05-12T04:04:03.648Z,56.25
2018-05-12T04:05:56.654Z,61.88
2018-05-12T04:06:56.707Z,67.50
2018-05-12T04:08:50.715Z,73.13
2018-05-12T04:09:50.767Z,73.13
2018-05-12T04:11:43.756Z,78.75
2018-05-12T04:12:43.816Z,84.38
2018-05-12T04:14:37.320Z,90.00
2018-05-12T04:15:37.373Z,90.00
2018-05-12T04:17:30.361Z,95.63
2018-05-12T04:18:30.423Z,101.25
2018-05-12T04:20:23.425Z,101.25
2018-05-12T04:21:23.471Z,106.88
2018-05-12T04:23:16.457Z,112.50
2018-05-12T04:24:16.517Z,112.50
2018-05-12T04:26:10.039Z,118.13
2018-05-12T04:27:10.075Z,118.13
2018-05-12T04:29:03.069Z,123.75
2018-05-12T04:30:03.121Z,129.38
2018-05-12T04:31:56.110Z,135.00
2018-05-12T04:32:56.170Z,140.63
2018-05-12T04:34:49.171Z,140.63
2018-05-12T04:35:49.227Z,146.25
2018-05-12T04:37:42.213Z,151.88
2018-05-12T04:38:42.301Z,151.88
2018-05-12T04:40:35.272Z,157.50
2018-05-12T04:41:35.328Z,163.13
2018-05-12T04:43:28.359Z,168.75
2018-05-12T04:44:28.373Z,174.38
2018-05-12T04:46:21.370Z,180.00
2018-05-12T04:47:21.422Z,180.00
2018-05-12T04:49:14.463Z,185.63
2018-05-12T04:50:14.531Z,185.63
2018-05-12T04:52:07.473Z,196.88
2018-05-12T04:53:07.546Z,196.88
2018-05-12T04:55:00.612Z,202.50
2018-05-12T04:56:00.579Z,202.50
2018-05-12T04:57:53.595Z,208.13
2018-05-12T04:58:53.630Z,208.13
2018-05-12T05:00:46.732Z,219.38
2018-05-12T05:01:46.692Z,219.38
2018-05-12T05:03:39.676Z,225.00
2018-05-12T05:04:39.723Z,230.63
2018-05-12T05:06:32.747Z,236.25
2018-05-12T05:07:32.799Z,236.25
2018-05-12T05:09:25.780Z,241.88
2018-05-12T05:10:25.861Z,247.50
2018-05-12T05:12:19.365Z,253.13
2018-05-12T05:13:18.911Z,253.13
2018-05-12T05:15:11.956Z,258.75
2018-05-12T05:16:11.952Z,264.38
2018-05-12T05:18:04.985Z,270.00
2018-05-12T05:19:05.055Z,275.63
2018-05-12T05:20:58.015Z,281.25
2018-05-12T05:21:58.331Z,286.88
2018-05-12T05:23:51.085Z,286.88
2018-05-12T05:24:51.126Z,286.88
2018-05-12T05:26:44.707Z,292.50
2018-05-12T05:27:44.686Z,292.50
2018-05-12T05:29:37.778Z,298.13
2018-05-12T05:30:37.732Z,298.13
2018-05-12T05:32:30.741Z,303.75
2018-05-12T05:33:30.780Z,303.75
2018-05-12T05:35:23.867Z,309.38
2018-05-12T05:36:23.857Z,315.00
2018-05-12T05:38:16.842Z,320.63
2018-05-12T05:39:16.899Z,326.25
2018-05-12T05:41:09.998Z,343.13
2018-05-12T05:42:09.960Z,343.13
2018-05-12T05:44:02.937Z,360.00
2018-05-12T05:45:02.977Z,365.63
2018-05-12T05:46:55.983Z,382.50
2018-05-12T05:47:56.032Z,388.13
2018-05-12T05:49:49.046Z,399.38
2018-05-12T05:50:49.081Z,405.00
2018-05-12T05:52:42.070Z,427.50
2018-05-12T05:53:42.132Z,433.13
2018-05-12T05:55:35.129Z,455.63
2018-05-12T05:56:35.184Z,461.25
2018-05-12T05:58:28.254Z,478.13
2018-05-12T05:59:28.235Z,483.75
2018-05-12T06:01:21.231Z,500.63
2018-05-12T06:02:21.287Z,506.25
2018-05-12T06:04:14.281Z,534.38
2018-05-12T06:05:14.345Z,551.25
2018-05-12T06:07:07.345Z,607.50
2018-05-12T06:08:07.397Z,624.38
2018-05-12T06:10:00.394Z,675.00
2018-05-12T06:11:00.450Z,748.13
2018-05-12T06:12:53.440Z,1648.13
2018-05-12T06:13:53.509Z,1726.88
2018-05-12T06:15:46.512Z,2070.00
2018-05-12T06:16:46.565Z,2086.88
2018-05-12T06:18:39.555Z,2025.00
2018-05-12T06:19:39.621Z,2086.88
2018-05-12T06:21:32.623Z,2143.13
2018-05-12T06:22:32.682Z,2193.75
2018-05-12T06:24:25.674Z,2244.38
2018-05-12T06:25:25.741Z,2205.00
2018-05-12T06:27:18.747Z,2216.25
2018-05-12T06:28:18.804Z,2205.00
2018-05-12T06:30:11.813Z,2137.50
2018-05-12T06:31:11.877Z,2120.63
2018-05-12T06:33:04.873Z,2115.00
2018-05-12T06:34:04.971Z,2058.75
2018-05-12T06:35:57.951Z,2064.38
2018-05-12T06:36:58.015Z,2092.50
2018-05-12T06:38:51.019Z,2171.25
2018-05-12T06:39:51.090Z,2103.75
2018-05-12T06:41:44.104Z,2244.38
2018-05-12T06:42:44.170Z,2272.50
2018-05-12T06:44:37.168Z,2475.00
2018-05-12T06:45:37.245Z,2446.88
2018-05-12T06:47:30.272Z,2491.88
2018-05-12T06:48:30.319Z,2385.00
2018-05-12T06:50:23.339Z,2452.50
2018-05-12T06:51:23.400Z,2486.25
2018-05-12T06:53:16.409Z,2683.13
2018-05-12T06:54:16.482Z,2784.38
2018-05-12T06:56:09.503Z,2356.88
2018-05-12T06:57:09.565Z,2396.25
2018-05-12T06:59:02.571Z,2525.63
2018-05-12T07:00:02.652Z,2469.38
2018-05-12T07:01:55.688Z,2581.88
2018-05-12T07:02:55.729Z,2593.13
2018-05-12T07:04:49.249Z,2880.00
2018-05-12T07:05:49.318Z,2902.50
2018-05-12T07:07:42.351Z,2790.00
2018-05-12T07:08:42.418Z,2610.00
2018-05-12T07:10:35.438Z,2475.00
2018-05-12T07:11:35.502Z,2581.88
2018-05-12T07:13:28.513Z,2649.38
2018-05-12T07:14:28.588Z,2598.75
2018-05-12T07:16:22.106Z,2604.38
2018-05-12T07:17:22.180Z,2666.25
2018-05-12T07:19:15.192Z,2508.75
2018-05-12T07:20:15.265Z,2531.25
2018-05-12T07:22:08.287Z,2497.50
2018-05-12T07:23:08.353Z,2469.38
2018-05-12T07:25:01.363Z,2688.75
2018-05-12T07:26:01.438Z,2756.25
2018-05-12T07:27:54.478Z,2885.63
2018-05-12T07:28:54.523Z,2615.63
2018-05-12T07:30:47.545Z,2604.38
2018-05-12T07:31:47.615Z,2587.50
2018-05-12T07:33:40.628Z,3318.75
2018-05-12T07:34:40.705Z,3279.38
2018-05-12T07:36:33.724Z,3262.50
2018-05-12T07:37:33.852Z,2908.13
2018-05-12T07:39:26.821Z,3082.50
2018-05-12T07:40:26.880Z,3144.38
2018-05-12T07:42:20.634Z,3251.25
2018-05-12T07:43:20.703Z,3600.00
2018-05-12T07:45:13.737Z,3864.38
2018-05-12T07:46:13.832Z,3982.50
2018-05-12T07:48:06.850Z,3853.13
2018-05-12T07:49:06.946Z,4100.63
2018-05-12T07:50:59.948Z,3853.13
2018-05-12T07:52:00.030Z,3915.00
2018-05-12T07:53:53.340Z,3937.50
2018-05-12T07:54:53.430Z,3796.88
2018-05-12T07:56:46.513Z,3577.50
2018-05-12T07:57:46.580Z,3757.50
2018-05-12T07:59:39.786Z,3583.13
2018-05-12T08:00:39.673Z,3645.00
2018-05-12T08:02:32.839Z,3931.88
2018-05-12T08:03:32.997Z,3774.38
2018-05-12T08:05:25.976Z,3847.50
2018-05-12T08:06:26.080Z,3825.00
2018-05-12T08:08:19.089Z,3313.13
2018-05-12T08:09:19.254Z,4128.75
2018-05-12T08:11:12.212Z,4111.88
2018-05-12T08:12:12.452Z,3735.00
2018-05-12T08:14:05.442Z,3611.25
2018-05-12T08:15:05.420Z,3532.50
2018-05-12T08:17:01.002Z,3673.13
2018-05-12T08:18:01.048Z,3600.00
2018-05-12T08:19:54.187Z,3785.63
2018-05-12T08:20:54.178Z,3870.00
2018-05-12T08:22:47.321Z,3915.00
2018-05-12T08:23:47.402Z,3785.63
2018-05-12T08:25:40.459Z,4033.13
2018-05-12T08:26:40.489Z,4117.50
2018-05-12T08:28:33.666Z,3414.38
2018-05-12T08:29:33.674Z,3706.88
2018-05-12T08:31:26.775Z,3330.00
2018-05-12T08:32:26.817Z,3633.75
2018-05-12T08:34:19.925Z,3841.88
2018-05-12T08:35:19.984Z,3538.13
2018-05-12T08:37:13.028Z,2964.38
2018-05-12T08:38:13.104Z,2643.75
2018-05-12T08:40:06.189Z,3369.38
2018-05-12T08:41:06.353Z,3408.75
2018-05-12T08:42:59.433Z,3335.63
2018-05-12T08:43:59.710Z,3363.75
2018-05-12T08:46:04.113Z,3555.00
2018-05-12T08:47:04.156Z,3391.88
2018-05-12T08:48:57.301Z,3155.63
2018-05-12T08:49:57.308Z,3673.13
2018-05-12T08:51:50.375Z,3307.50
2018-05-12T08:52:50.438Z,3825.00
2018-05-12T08:54:43.478Z,4230.00
2018-05-12T08:55:43.553Z,4151.25
2018-05-12T08:57:36.690Z,4095.00
2018-05-12T08:58:36.757Z,3735.00
2018-05-12T09:00:30.869Z,3324.38
2018-05-12T09:01:31.053Z,2868.75
2018-05-12T09:03:24.101Z,3988.13
2018-05-12T09:04:24.115Z,4156.88
2018-05-12T09:06:17.282Z,3650.63
2018-05-12T09:07:17.406Z,3375.00
2018-05-12T09:09:10.397Z,2936.25
2018-05-12T09:10:10.485Z,3690.00
2018-05-12T09:12:03.507Z,4095.00
2018-05-12T09:13:03.571Z,4134.38
2018-05-12T09:14:56.589Z,3774.38
2018-05-12T09:15:56.695Z,4010.63
2018-05-12T09:17:50.616Z,4623.75
2018-05-12T09:18:50.688Z,4230.00
2018-05-12T09:20:43.760Z,1355.63
2018-05-12T09:21:43.900Z,990.00
2018-05-12T09:23:36.820Z,888.75
2018-05-12T09:24:36.890Z,871.88
2018-05-12T09:26:29.968Z,815.63
2018-05-12T09:27:30.034Z,804.38
2018-05-12T09:29:23.045Z,832.50
2018-05-12T09:30:23.120Z,855.00
2018-05-12T09:32:16.149Z,911.25
2018-05-12T09:33:16.218Z,939.38
2018-05-12T09:35:09.239Z,922.50
2018-05-12T09:36:09.313Z,922.50
2018-05-12T09:38:02.342Z,849.38
2018-05-12T09:39:02.411Z,905.63
2018-05-12T09:40:55.424Z,832.50
2018-05-12T09:41:55.506Z,855.00
2018-05-12T09:43:48.533Z,748.13
2018-05-12T09:44:48.599Z,658.13
2018-05-12T09:46:41.618Z,613.13
2018-05-12T09:47:41.684Z,663.75
2018-05-12T09:49:34.695Z,658.13
2018-05-12T09:50:34.770Z,596.25
2018-05-12T09:52:27.842Z,585.00
2018-05-12T09:53:27.868Z,613.13
2018-05-12T09:55:20.883Z,607.50
2018-05-12T09:56:21.049Z,601.88
2018-05-12T09:58:13.991Z,613.13
2018-05-12T09:59:14.050Z,618.75
2018-05-12T10:01:07.063Z,714.38
2018-05-12T10:02:07.142Z,787.50
2018-05-12T10:04:00.156Z,855.00
2018-05-12T10:05:00.223Z,871.88
2018-05-12T10:06:53.246Z,871.88
2018-05-12T10:07:53.305Z,883.13
2018-05-12T10:09:46.318Z,922.50
2018-05-12T10:10:46.393Z,961.88
2018-05-12T10:12:39.414Z,1006.88
2018-05-12T10:13:39.476Z,978.75
2018-05-12T10:15:32.550Z,928.13
2018-05-12T10:16:32.558Z,900.00
2018-05-12T10:18:25.573Z,849.38
2018-05-12T10:19:25.643Z,838.13
2018-05-12T10:21:18.649Z,753.75
2018-05-12T10:22:18.724Z,731.25
2018-05-12T10:24:11.742Z,776.25
2018-05-12T10:25:11.803Z,804.38
2018-05-12T10:27:04.825Z,821.25
2018-05-12T10:28:04.885Z,798.75
2018-05-12T10:29:57.899Z,753.75
2018-05-12T10:30:57.973Z,736.88
2018-05-12T10:32:50.991Z,686.25
2018-05-12T10:33:51.055Z,675.00
2018-05-12T10:35:44.063Z,669.38
2018-05-12T10:36:44.133Z,652.50
2018-05-12T10:38:37.153Z,613.13
2018-05-12T10:39:37.216Z,624.38
2018-05-12T10:41:30.233Z,630.00
2018-05-12T10:42:30.295Z,618.75
2018-05-12T10:44:23.310Z,635.63
2018-05-12T10:45:23.425Z,652.50
2018-05-12T10:47:16.391Z,652.50
2018-05-12T10:48:16.458Z,680.63
2018-05-12T10:50:09.459Z,663.75
2018-05-12T10:51:09.529Z,646.88
2018-05-12T10:53:02.551Z,652.50
2018-05-12T10:54:02.611Z,646.88
2018-05-12T10:55:55.626Z,641.25
2018-05-12T10:56:55.696Z,613.13
2018-05-12T10:58:48.714Z,579.38
2018-05-12T10:59:48.772Z,579.38
2018-05-12T11:01:41.780Z,596.25
2018-05-12T11:02:41.851Z,596.25
2018-05-12T11:04:34.865Z,618.75
2018-05-12T11:05:34.926Z,630.00
2018-05-12T11:07:27.941Z,663.75
2018-05-12T11:08:28.006Z,669.38
2018-05-12T11:10:21.009Z,618.75
2018-05-12T11:11:21.078Z,601.88
2018-05-12T11:13:14.093Z,573.75
2018-05-12T11:14:14.155Z,585.00
2018-05-12T11:16:07.364Z,613.13
2018-05-12T11:17:07.232Z,630.00
2018-05-12T11:19:00.247Z,646.88
2018-05-12T11:20:00.307Z,641.25
2018-05-12T11:21:53.497Z,630.00
2018-05-12T11:22:53.390Z,624.38
2018-05-12T11:24:46.401Z,613.13
2018-05-12T11:25:46.463Z,624.38
2018-05-12T11:27:39.475Z,658.13
2018-05-12T11:28:39.536Z,658.13
2018-05-12T11:30:32.539Z,641.25
2018-05-12T11:31:32.610Z,624.38
2018-05-12T11:33:25.632Z,596.25
2018-05-12T11:34:25.693Z,568.13
2018-05-12T11:36:18.692Z,556.88
2018-05-12T11:37:18.766Z,556.88
2018-05-12T11:39:11.773Z,562.50
2018-05-12T11:40:11.835Z,551.25
2018-05-12T11:42:04.843Z,551.25
2018-05-12T11:43:04.912Z,534.38
2018-05-12T11:44:57.924Z,528.75
2018-05-12T11:45:57.988Z,528.75
2018-05-12T11:47:51.003Z,528.75
2018-05-12T11:48:51.063Z,523.13
2018-05-12T11:50:44.071Z,517.50
2018-05-12T11:51:44.137Z,523.13
2018-05-12T11:53:37.151Z,523.13
2018-05-12T11:54:37.211Z,528.75
2018-05-12T11:56:30.221Z,528.75
2018-05-12T11:57:30.289Z,534.38
2018-05-12T11:59:23.307Z,540.00
2018-05-12T12:00:23.372Z,551.25
2018-05-12T12:02:16.377Z,562.50
2018-05-12T12:03:16.444Z,573.75
2018-05-12T12:05:09.456Z,613.13
2018-05-12T12:06:09.517Z,618.75
2018-05-12T12:08:02.553Z,630.00
2018-05-12T12:09:02.594Z,630.00
2018-05-12T12:10:55.596Z,624.38
2018-05-12T12:11:55.665Z,618.75
2018-05-12T12:13:48.678Z,613.13
2018-05-12T12:14:48.742Z,613.13
2018-05-12T12:16:41.798Z,613.13
2018-05-12T12:17:41.817Z,630.00
2018-05-12T12:19:34.828Z,630.00
2018-05-12T12:20:34.901Z,630.00
2018-05-12T12:22:27.900Z,630.00
2018-05-12T12:23:27.970Z,624.38
2018-05-12T12:25:20.988Z,624.38
2018-05-12T12:26:21.046Z,624.38
2018-05-12T12:28:14.061Z,618.75
2018-05-12T12:29:14.122Z,601.88
2018-05-12T12:31:07.128Z,585.00
2018-05-12T12:32:07.197Z,601.88
2018-05-12T12:34:00.212Z,646.88
2018-05-12T12:35:00.272Z,658.13
2018-05-12T12:36:53.278Z,675.00
2018-05-12T12:37:53.346Z,686.25
2018-05-12T12:39:46.359Z,703.13
2018-05-12T12:40:46.417Z,697.50
2018-05-12T12:42:39.425Z,675.00
2018-05-12T12:43:39.491Z,663.75
2018-05-12T12:45:32.561Z,613.13
2018-05-12T12:46:32.566Z,585.00
2018-05-12T12:48:25.581Z,528.75
2018-05-12T12:49:25.646Z,495.00
2018-05-12T12:51:18.646Z,495.00
2018-05-12T12:52:18.715Z,511.88
2018-05-12T12:54:11.734Z,534.38
2018-05-12T12:55:11.798Z,545.63
2018-05-12T12:57:04.800Z,517.50
2018-05-12T12:58:04.874Z,506.25
2018-05-12T12:59:57.884Z,472.50
2018-05-12T13:00:57.943Z,466.88
2018-05-12T13:02:50.945Z,466.88
2018-05-12T13:03:51.014Z,461.25
2018-05-12T13:05:44.032Z,450.00
2018-05-12T13:06:44.088Z,455.63
2018-05-12T13:08:37.105Z,450.00
2018-05-12T13:09:37.167Z,438.75
2018-05-12T13:11:30.677Z,427.50
2018-05-12T13:12:30.832Z,427.50
2018-05-12T13:14:23.761Z,421.88
2018-05-12T13:15:23.817Z,427.50
2018-05-12T13:17:16.824Z,438.75
2018-05-12T13:18:16.894Z,438.75
2018-05-12T13:20:09.909Z,416.25
2018-05-12T13:21:09.963Z,399.38
2018-05-12T13:23:02.971Z,388.13
2018-05-12T13:24:03.037Z,388.13
2018-05-12T13:25:56.046Z,382.50
2018-05-12T13:26:56.111Z,376.88
2018-05-12T13:28:49.120Z,365.63
2018-05-12T13:29:49.182Z,360.00
2018-05-12T13:31:42.185Z,360.00
2018-05-12T13:32:42.257Z,348.75
2018-05-12T13:34:35.265Z,331.88
2018-05-12T13:35:35.329Z,326.25
2018-05-12T13:37:28.327Z,315.00
2018-05-12T13:38:28.395Z,315.00
2018-05-12T13:40:21.475Z,320.63
2018-05-12T13:41:21.475Z,331.88
2018-05-12T13:43:14.472Z,326.25
2018-05-12T13:44:14.538Z,320.63
2018-05-12T13:46:07.551Z,315.00
2018-05-12T13:47:07.614Z,315.00
2018-05-12T13:49:00.620Z,320.63
2018-05-12T13:50:00.684Z,326.25
2018-05-12T13:51:53.689Z,320.63
2018-05-12T13:52:53.756Z,320.63
2018-05-12T13:54:46.768Z,320.63
2018-05-12T13:55:46.838Z,326.25
2018-05-12T13:57:39.837Z,326.25
2018-05-12T13:58:39.898Z,326.25
2018-05-12T14:00:33.424Z,320.63
2018-05-12T14:01:33.487Z,320.63
2018-05-12T14:03:26.485Z,320.63
2018-05-12T14:04:26.552Z,320.63
2018-05-12T14:06:19.569Z,320.63
2018-05-12T14:07:19.661Z,326.25
2018-05-12T14:09:12.646Z,320.63
2018-05-12T14:10:12.706Z,320.63
2018-05-12T14:12:06.217Z,320.63
2018-05-12T14:13:06.286Z,320.63
2018-05-12T14:14:59.296Z,326.25
2018-05-12T14:15:59.402Z,331.88
2018-05-12T14:17:52.367Z,331.88
2018-05-12T14:18:52.456Z,320.63
2018-05-12T14:20:45.448Z,309.38
2018-05-12T14:21:45.508Z,303.75
2018-05-12T14:23:38.512Z,286.88
2018-05-12T14:24:38.578Z,275.63
2018-05-12T14:26:31.588Z,270.00
2018-05-12T14:27:31.658Z,264.38
2018-05-12T14:29:24.662Z,258.75
2018-05-12T14:30:24.729Z,258.75
2018-05-12T14:32:17.726Z,264.38
2018-05-12T14:33:17.795Z,264.38
2018-05-12T14:35:10.802Z,270.00
2018-05-12T14:36:10.863Z,270.00
2018-05-12T14:38:03.868Z,286.88
2018-05-12T14:39:03.933Z,298.13
2018-05-12T14:40:56.945Z,309.38
2018-05-12T14:41:57.008Z,315.00
2018-05-12T14:43:50.007Z,320.63
2018-05-12T14:44:50.074Z,320.63
2018-05-12T14:46:43.085Z,320.63
2018-05-12T14:47:43.147Z,320.63
2018-05-12T14:49:36.160Z,315.00
2018-05-12T14:50:36.215Z,315.00
2018-05-12T14:52:29.226Z,298.13
2018-05-12T14:53:29.291Z,292.50
2018-05-12T14:55:22.303Z,286.88
2018-05-12T14:56:22.361Z,286.88
2018-05-12T14:58:15.395Z,281.25
2018-05-12T14:59:15.430Z,275.63
2018-05-12T15:01:08.470Z,275.63
2018-05-12T15:02:08.503Z,275.63
2018-05-12T15:04:01.505Z,286.88
2018-05-12T15:05:01.570Z,286.88
2018-05-12T15:06:54.585Z,286.88
2018-05-12T15:07:54.643Z,286.88
2018-05-12T15:09:47.656Z,286.88
2018-05-12T15:10:47.717Z,286.88
2018-05-12T15:12:40.718Z,286.88
2018-05-12T15:13:40.787Z,286.88
2018-05-12T15:15:33.813Z,286.88
2018-05-12T15:16:33.857Z,286.88
2018-05-12T15:18:26.862Z,298.13
2018-05-12T15:19:26.927Z,298.13
2018-05-12T15:21:19.994Z,309.38
2018-05-12T15:22:19.999Z,309.38
2018-05-12T15:24:13.003Z,315.00
2018-05-12T15:25:13.068Z,309.38
2018-05-12T15:27:06.088Z,309.38
2018-05-12T15:28:06.141Z,309.38
2018-05-12T15:29:59.150Z,320.63
2018-05-12T15:30:59.211Z,320.63
2018-05-12T15:32:52.214Z,331.88
2018-05-12T15:33:52.280Z,337.50
2018-05-12T15:35:45.300Z,360.00
2018-05-12T15:36:45.351Z,365.63
2018-05-12T15:38:38.387Z,371.25
2018-05-12T15:39:38.424Z,371.25
2018-05-12T15:41:31.442Z,365.63
2018-05-12T15:42:31.503Z,365.63
2018-05-12T15:44:24.499Z,365.63
2018-05-12T15:45:24.575Z,365.63
2018-05-12T15:47:17.585Z,365.63
2018-05-12T15:48:17.641Z,365.63
2018-05-12T15:50:10.657Z,365.63
2018-05-12T15:51:10.707Z,360.00
2018-05-12T15:53:03.716Z,354.38
2018-05-12T15:54:03.816Z,354.38
2018-05-12T15:55:56.796Z,348.75
2018-05-12T15:56:56.872Z,354.38
2018-05-12T15:58:49.866Z,348.75
2018-05-12T15:59:49.926Z,343.13
2018-05-12T16:01:42.938Z,337.50
2018-05-12T16:02:42.997Z,337.50
2018-05-12T16:04:35.997Z,331.88
2018-05-12T16:05:36.072Z,331.88
2018-05-12T16:07:29.078Z,331.88
2018-05-12T16:08:29.139Z,326.25
2018-05-12T16:10:22.143Z,320.63
2018-05-12T16:11:22.216Z,315.00
2018-05-12T16:13:15.216Z,298.13
2018-05-12T16:14:15.274Z,298.13
2018-05-12T16:16:08.286Z,286.88
2018-05-12T16:17:08.343Z,281.25
2018-05-12T16:19:01.354Z,270.00
2018-05-12T16:20:01.428Z,264.38
2018-05-12T16:21:54.436Z,253.13
2018-05-12T16:22:54.495Z,253.13
2018-05-12T16:24:47.494Z,253.13
2018-05-12T16:25:47.580Z,253.13
2018-05-12T16:27:40.575Z,247.50
2018-05-12T16:28:40.634Z,241.88
2018-05-12T16:30:34.161Z,230.63
2018-05-12T16:31:34.266Z,225.00
2018-05-12T16:33:27.209Z,213.75
2018-05-12T16:34:27.281Z,213.75
2018-05-12T16:36:20.294Z,213.75
2018-05-12T16:37:20.445Z,208.13
2018-05-12T16:39:13.360Z,196.88
2018-05-12T16:40:13.432Z,191.25
2018-05-12T16:42:06.441Z,180.00
2018-05-12T16:43:06.502Z,180.00
2018-05-12T16:44:59.507Z,180.00
2018-05-12T16:45:59.573Z,185.63
2018-05-12T16:47:52.584Z,196.88
2018-05-12T16:48:52.645Z,202.50
2018-05-12T16:50:45.701Z,208.13
2018-05-12T16:51:45.712Z,208.13
2018-05-12T16:53:38.719Z,219.38
2018-05-12T16:54:38.792Z,219.38
2018-05-12T16:56:31.801Z,225.00
2018-05-12T16:57:31.894Z,225.00
2018-05-12T16:59:24.863Z,230.63
2018-05-12T17:00:24.935Z,230.63
2018-05-12T17:02:17.943Z,225.00
2018-05-12T17:03:18.004Z,225.00
2018-05-12T17:05:11.010Z,230.63
2018-05-12T17:06:11.080Z,230.63
2018-05-12T17:08:04.082Z,236.25
2018-05-12T17:09:04.141Z,236.25
2018-05-12T17:10:57.148Z,236.25
2018-05-12T17:11:57.208Z,230.63
2018-05-12T17:13:50.264Z,236.25
2018-05-12T17:14:50.281Z,230.63
2018-05-12T17:16:43.290Z,225.00
2018-05-12T17:17:43.357Z,219.38
2018-05-12T17:19:36.356Z,213.75
2018-05-12T17:20:36.422Z,213.75
2018-05-12T17:22:29.434Z,208.13
2018-05-12T17:23:29.500Z,208.13
2018-05-12T17:25:22.499Z,202.50
2018-05-12T17:26:22.565Z,196.88
2018-05-12T17:28:15.577Z,196.88
2018-05-12T17:29:15.632Z,196.88
2018-05-12T17:31:09.150Z,191.25
2018-05-12T17:32:09.210Z,191.25
2018-05-12T17:34:02.211Z,191.25
2018-05-12T17:35:02.275Z,185.63
2018-05-12T17:36:55.283Z,191.25
2018-05-12T17:37:55.385Z,185.63
2018-05-12T17:39:48.356Z,185.63
2018-05-12T17:40:48.409Z,185.63
2018-05-12T17:42:41.437Z,185.63
2018-05-12T17:43:41.527Z,180.00
2018-05-12T17:45:34.494Z,168.75
2018-05-12T17:46:34.556Z,163.13
2018-05-12T17:48:27.575Z,151.88
2018-05-12T17:49:27.626Z,146.25
2018-05-12T17:51:20.636Z,135.00
2018-05-12T17:52:20.694Z,129.38
2018-05-12T17:54:13.700Z,123.75
2018-05-12T17:55:13.767Z,123.75
2018-05-12T17:57:06.793Z,118.13
2018-05-12T17:58:06.849Z,118.13
2018-05-12T17:59:59.857Z,118.13
2018-05-12T18:00:59.929Z,118.13
2018-05-12T18:02:52.935Z,112.50
2018-05-12T18:03:53.084Z,106.88
2018-05-12T18:05:46.006Z,106.88
2018-05-12T18:06:46.070Z,101.25
2018-05-12T18:08:39.080Z,95.63